sensor_id;sensor_type;location;lat;lon;timestamp;temperature;humidity
78467;SHT31;67759;51.972;5.650;2023-06-26T00:02:21;29.8;41.6
78467;SHT31;67759;51.972;5.650;2023-06-26T00:04:50;29.8;42.0
78467;SHT31;67759;51.972;5.650;2023-06-26T00:07:21;29.8;41.5
78467;SHT31;67759;51.972;5.650;2023-06-26T00:09:50;29.8;42.0
78467;SHT31;67759;51.972;5.650;2023-06-26T00:12:20;29.8;43.1
78467;SHT31;67759;51.972;5.650;2023-06-26T00:14:50;29.7;42.8
78467;SHT31;67759;51.972;5.650;2023-06-26T00:17:20;29.7;41.7
78467;SHT31;67759;51.972;5.650;2023-06-26T00:19:50;29.7;42.1
78467;SHT31;67759;51.972;5.650;2023-06-26T00:22:21;29.6;43.3
78467;SHT31;67759;51.972;5.650;2023-06-26T00:24:51;29.6;41.7
78467;SHT31;67759;51.972;5.650;2023-06-26T00:27:20;29.6;43.3
78467;SHT31;67759;51.972;5.650;2023-06-26T00:29:51;29.5;43.7
78467;SHT31;67759;51.972;5.650;2023-06-26T00:32:20;29.5;43.7
78467;SHT31;67759;51.972;5.650;2023-06-26T00:34:50;29.5;43.4
78467;SHT31;67759;51.972;5.650;2023-06-26T00:37:20;29.4;43.9
78467;SHT31;67759;51.972;5.650;2023-06-26T00:39:51;29.4;43.8
78467;SHT31;67759;51.972;5.650;2023-06-26T00:42:21;29.3;43.8
78467;SHT31;67759;51.972;5.650;2023-06-26T00:44:50;29.3;44.0
78467;SHT31;67759;51.972;5.650;2023-06-26T00:47:20;29.3;43.3
78467;SHT31;67759;51.972;5.650;2023-06-26T00:49:50;29.2;43.7
78467;SHT31;67759;51.972;5.650;2023-06-26T00:52:21;29.2;42.8
78467;SHT31;67759;51.972;5.650;2023-06-26T00:54:53;29.1;44.6
78467;SHT31;67759;51.972;5.650;2023-06-26T00:57:24;29.1;42.9
78467;SHT31;67759;51.972;5.650;2023-06-26T00:59:53;29.1;44.6
78467;SHT31;67759;51.972;5.650;2023-06-26T01:02:23;29.1;44.0
78467;SHT31;67759;51.972;5.650;2023-06-26T01:04:58;29.0;44.1
78467;SHT31;67759;51.972;5.650;2023-06-26T01:07:29;29.0;44.3
78467;SHT31;67759;51.972;5.650;2023-06-26T01:09:59;29.0;44.4
78467;SHT31;67759;51.972;5.650;2023-06-26T01:12:30;29.0;43.5
78467;SHT31;67759;51.972;5.650;2023-06-26T01:15:01;29.0;44.3
78467;SHT31;67759;51.972;5.650;2023-06-26T01:17:31;28.9;44.1
78467;SHT31;67759;51.972;5.650;2023-06-26T01:20:03;28.9;44.2
78467;SHT31;67759;51.972;5.650;2023-06-26T01:22:38;28.9;43.4
78467;SHT31;67759;51.972;5.650;2023-06-26T01:25:21;28.9;43.9
78467;SHT31;67759;51.972;5.650;2023-06-26T01:27:53;28.9;44.2
78467;SHT31;67759;51.972;5.650;2023-06-26T01:30:25;28.9;43.8
78467;SHT31;67759;51.972;5.650;2023-06-26T01:32:55;28.8;44.0
78467;SHT31;67759;51.972;5.650;2023-06-26T01:35:25;28.8;43.7
78467;SHT31;67759;51.972;5.650;2023-06-26T01:38:15;28.7;43.4
78467;SHT31;67759;51.972;5.650;2023-06-26T01:40:46;28.6;43.8
78467;SHT31;67759;51.972;5.650;2023-06-26T01:43:26;28.5;44.0
78467;SHT31;67759;51.972;5.650;2023-06-26T01:46:01;28.4;44.1
78467;SHT31;67759;51.972;5.650;2023-06-26T01:48:40;28.3;44.0
78467;SHT31;67759;51.972;5.650;2023-06-26T01:51:14;28.2;44.0
78467;SHT31;67759;51.972;5.650;2023-06-26T01:53:53;28.1;43.8
78467;SHT31;67759;51.972;5.650;2023-06-26T01:56:24;28.0;44.0
78467;SHT31;67759;51.972;5.650;2023-06-26T01:58:56;27.9;44.2
78467;SHT31;67759;51.972;5.650;2023-06-26T02:01:27;27.8;44.3
78467;SHT31;67759;51.972;5.650;2023-06-26T02:03:58;27.6;44.6
78467;SHT31;67759;51.972;5.650;2023-06-26T02:06:28;27.6;45.1
78467;SHT31;67759;51.972;5.650;2023-06-26T02:08:59;27.5;45.2
78467;SHT31;67759;51.972;5.650;2023-06-26T02:11:29;27.4;45.2
78467;SHT31;67759;51.972;5.650;2023-06-26T02:13:59;27.3;45.5
78467;SHT31;67759;51.972;5.650;2023-06-26T02:16:28;27.2;45.9
78467;SHT31;67759;51.972;5.650;2023-06-26T02:18:58;27.2;46.0
78467;SHT31;67759;51.972;5.650;2023-06-26T02:21:28;27.1;46.6
78467;SHT31;67759;51.972;5.650;2023-06-26T02:23:59;27.0;46.8
78467;SHT31;67759;51.972;5.650;2023-06-26T02:26:28;27.0;47.0
78467;SHT31;67759;51.972;5.650;2023-06-26T02:28:58;26.9;47.0
78467;SHT31;67759;51.972;5.650;2023-06-26T02:31:28;26.9;47.5
78467;SHT31;67759;51.972;5.650;2023-06-26T02:33:58;26.8;47.3
78467;SHT31;67759;51.972;5.650;2023-06-26T02:36:27;26.8;47.7
78467;SHT31;67759;51.972;5.650;2023-06-26T02:38:59;26.7;47.7
78467;SHT31;67759;51.972;5.650;2023-06-26T02:41:29;26.7;47.9
78467;SHT31;67759;51.972;5.650;2023-06-26T02:43:59;26.7;47.4
78467;SHT31;67759;51.972;5.650;2023-06-26T02:46:28;26.6;48.1
78467;SHT31;67759;51.972;5.650;2023-06-26T02:48:59;26.6;48.3
78467;SHT31;67759;51.972;5.650;2023-06-26T02:51:29;26.5;48.2
78467;SHT31;67759;51.972;5.650;2023-06-26T02:53:59;26.5;48.5
78467;SHT31;67759;51.972;5.650;2023-06-26T02:56:31;26.4;48.4
78467;SHT31;67759;51.972;5.650;2023-06-26T02:59:00;26.4;48.6
78467;SHT31;67759;51.972;5.650;2023-06-26T03:01:30;26.4;48.3
78467;SHT31;67759;51.972;5.650;2023-06-26T03:04:00;26.4;48.6
78467;SHT31;67759;51.972;5.650;2023-06-26T03:06:30;26.3;49.2
78467;SHT31;67759;51.972;5.650;2023-06-26T03:09:00;26.3;49.6
78467;SHT31;67759;51.972;5.650;2023-06-26T03:11:30;26.3;48.3
78467;SHT31;67759;51.972;5.650;2023-06-26T03:14:00;26.3;49.1
78467;SHT31;67759;51.972;5.650;2023-06-26T03:16:30;26.3;49.3
78467;SHT31;67759;51.972;5.650;2023-06-26T03:18:59;26.3;49.7
78467;SHT31;67759;51.972;5.650;2023-06-26T03:21:29;26.3;49.0
78467;SHT31;67759;51.972;5.650;2023-06-26T03:23:59;26.3;49.2
78467;SHT31;67759;51.972;5.650;2023-06-26T03:26:29;26.2;49.8
78467;SHT31;67759;51.972;5.650;2023-06-26T03:29:00;26.2;49.9
78467;SHT31;67759;51.972;5.650;2023-06-26T03:31:30;26.2;50.2
78467;SHT31;67759;51.972;5.650;2023-06-26T03:34:00;26.1;50.3
78467;SHT31;67759;51.972;5.650;2023-06-26T03:36:29;26.1;50.0
78467;SHT31;67759;51.972;5.650;2023-06-26T03:39:01;26.0;50.4
78467;SHT31;67759;51.972;5.650;2023-06-26T03:41:31;26.0;50.8
78467;SHT31;67759;51.972;5.650;2023-06-26T03:44:01;26.0;50.6
78467;SHT31;67759;51.972;5.650;2023-06-26T03:46:31;25.9;51.0
78467;SHT31;67759;51.972;5.650;2023-06-26T03:49:01;25.9;51.4
78467;SHT31;67759;51.972;5.650;2023-06-26T03:51:31;25.9;51.3
78467;SHT31;67759;51.972;5.650;2023-06-26T03:54:01;26.0;51.0
78467;SHT31;67759;51.972;5.650;2023-06-26T03:56:31;26.0;51.4
78467;SHT31;67759;51.972;5.650;2023-06-26T03:59:01;26.0;50.5
78467;SHT31;67759;51.972;5.650;2023-06-26T04:01:32;26.0;50.9
78467;SHT31;67759;51.972;5.650;2023-06-26T04:04:04;26.0;51.1
78467;SHT31;67759;51.972;5.650;2023-06-26T04:06:34;26.0;50.9
78467;SHT31;67759;51.972;5.650;2023-06-26T04:09:04;26.0;50.5
78467;SHT31;67759;51.972;5.650;2023-06-26T04:11:34;26.1;51.7
78467;SHT31;67759;51.972;5.650;2023-06-26T04:14:03;26.1;51.6
78467;SHT31;67759;51.972;5.650;2023-06-26T04:16:33;26.0;52.0
78467;SHT31;67759;51.972;5.650;2023-06-26T04:19:03;26.0;51.8
78467;SHT31;67759;51.972;5.650;2023-06-26T04:21:32;25.9;51.6
78467;SHT31;67759;51.972;5.650;2023-06-26T04:24:02;25.9;52.3
78467;SHT31;67759;51.972;5.650;2023-06-26T04:26:32;25.8;51.9
78467;SHT31;67759;51.972;5.650;2023-06-26T04:29:03;25.7;52.4
78467;SHT31;67759;51.972;5.650;2023-06-26T04:31:32;25.7;52.8
78467;SHT31;67759;51.972;5.650;2023-06-26T04:34:02;25.7;52.9
78467;SHT31;67759;51.972;5.650;2023-06-26T04:36:32;25.6;52.6
78467;SHT31;67759;51.972;5.650;2023-06-26T04:39:06;25.6;52.8
78467;SHT31;67759;51.972;5.650;2023-06-26T04:41:37;25.6;53.0
78467;SHT31;67759;51.972;5.650;2023-06-26T04:44:07;25.6;52.5
78467;SHT31;67759;51.972;5.650;2023-06-26T04:46:37;25.7;52.4
78467;SHT31;67759;51.972;5.650;2023-06-26T04:49:08;25.7;52.6
78467;SHT31;67759;51.972;5.650;2023-06-26T04:51:38;25.7;52.4
78467;SHT31;67759;51.972;5.650;2023-06-26T04:54:10;25.8;52.4
78467;SHT31;67759;51.972;5.650;2023-06-26T04:56:40;25.8;52.6
78467;SHT31;67759;51.972;5.650;2023-06-26T04:59:11;25.8;52.5
78467;SHT31;67759;51.972;5.650;2023-06-26T05:01:42;25.8;52.5
78467;SHT31;67759;51.972;5.650;2023-06-26T05:04:15;25.8;52.6
78467;SHT31;67759;51.972;5.650;2023-06-26T05:06:45;25.8;52.7
78467;SHT31;67759;51.972;5.650;2023-06-26T05:09:15;25.8;52.6
78467;SHT31;67759;51.972;5.650;2023-06-26T05:11:46;25.8;52.4
78467;SHT31;67759;51.972;5.650;2023-06-26T05:14:16;25.8;52.4
78467;SHT31;67759;51.972;5.650;2023-06-26T05:16:45;25.8;52.3
78467;SHT31;67759;51.972;5.650;2023-06-26T05:19:15;25.8;51.4
78467;SHT31;67759;51.972;5.650;2023-06-26T05:21:45;25.8;50.8
78467;SHT31;67759;51.972;5.650;2023-06-26T05:24:16;25.8;50.3
78467;SHT31;67759;51.972;5.650;2023-06-26T05:26:46;25.9;50.0
78467;SHT31;67759;51.972;5.650;2023-06-26T05:29:16;25.9;50.0
78467;SHT31;67759;51.972;5.650;2023-06-26T05:31:48;25.9;49.8
78467;SHT31;67759;51.972;5.650;2023-06-26T05:34:20;26.0;49.6
78467;SHT31;67759;51.972;5.650;2023-06-26T05:36:52;26.0;49.7
78467;SHT31;67759;51.972;5.650;2023-06-26T05:39:26;26.0;49.3
78467;SHT31;67759;51.972;5.650;2023-06-26T05:41:57;26.1;49.3
78467;SHT31;67759;51.972;5.650;2023-06-26T05:44:27;26.1;48.6
78467;SHT31;67759;51.972;5.650;2023-06-26T05:46:57;26.2;48.5
78467;SHT31;67759;51.972;5.650;2023-06-26T05:49:26;26.2;48.0
78467;SHT31;67759;51.972;5.650;2023-06-26T05:51:56;26.3;47.5
78467;SHT31;67759;51.972;5.650;2023-06-26T05:54:27;26.3;47.5
78467;SHT31;67759;51.972;5.650;2023-06-26T05:56:58;26.3;47.3
78467;SHT31;67759;51.972;5.650;2023-06-26T05:59:31;26.4;47.4
78467;SHT31;67759;51.972;5.650;2023-06-26T06:02:03;26.4;47.3
78467;SHT31;67759;51.972;5.650;2023-06-26T06:04:33;26.4;47.1
78467;SHT31;67759;51.972;5.650;2023-06-26T06:07:02;26.5;46.9
78467;SHT31;67759;51.972;5.650;2023-06-26T06:09:32;26.5;46.7
78467;SHT31;67759;51.972;5.650;2023-06-26T06:12:04;26.6;46.3
78467;SHT31;67759;51.972;5.650;2023-06-26T06:14:34;26.6;45.9
78467;SHT31;67759;51.972;5.650;2023-06-26T06:17:04;26.6;45.1
78467;SHT31;67759;51.972;5.650;2023-06-26T06:19:34;26.7;44.7
78467;SHT31;67759;51.972;5.650;2023-06-26T06:22:03;26.8;45.3
78467;SHT31;67759;51.972;5.650;2023-06-26T06:24:34;27.0;44.9
78467;SHT31;67759;51.972;5.650;2023-06-26T06:27:04;27.1;44.7
78467;SHT31;67759;51.972;5.650;2023-06-26T06:29:33;27.2;44.7
78467;SHT31;67759;51.972;5.650;2023-06-26T06:32:03;27.2;44.7
78467;SHT31;67759;51.972;5.650;2023-06-26T06:34:33;27.3;44.5
78467;SHT31;67759;51.972;5.650;2023-06-26T06:37:04;27.3;44.5
78467;SHT31;67759;51.972;5.650;2023-06-26T06:39:36;27.3;45.0
78467;SHT31;67759;51.972;5.650;2023-06-26T06:42:06;27.4;44.3
78467;SHT31;67759;51.972;5.650;2023-06-26T06:44:36;27.4;43.9
78467;SHT31;67759;51.972;5.650;2023-06-26T06:47:06;27.4;43.7
78467;SHT31;67759;51.972;5.650;2023-06-26T06:49:36;27.4;43.4
78467;SHT31;67759;51.972;5.650;2023-06-26T06:52:06;27.5;43.3
78467;SHT31;67759;51.972;5.650;2023-06-26T06:54:51;27.5;43.5
78467;SHT31;67759;51.972;5.650;2023-06-26T06:57:21;27.6;43.8
78467;SHT31;67759;51.972;5.650;2023-06-26T06:59:54;27.6;44.0
78467;SHT31;67759;51.972;5.650;2023-06-26T07:02:24;27.7;43.9
78467;SHT31;67759;51.972;5.650;2023-06-26T07:04:53;27.7;43.6
78467;SHT31;67759;51.972;5.650;2023-06-26T07:07:23;27.7;43.5
78467;SHT31;67759;51.972;5.650;2023-06-26T07:09:55;27.8;43.9
78467;SHT31;67759;51.972;5.650;2023-06-26T07:12:26;27.8;43.7
78467;SHT31;67759;51.972;5.650;2023-06-26T07:14:57;27.8;43.7
78467;SHT31;67759;51.972;5.650;2023-06-26T07:17:26;27.8;43.9
78467;SHT31;67759;51.972;5.650;2023-06-26T07:19:56;27.8;44.1
78467;SHT31;67759;51.972;5.650;2023-06-26T07:22:28;27.9;44.0
78467;SHT31;67759;51.972;5.650;2023-06-26T07:24:59;27.9;44.2
78467;SHT31;67759;51.972;5.650;2023-06-26T07:27:29;28.0;43.8
78467;SHT31;67759;51.972;5.650;2023-06-26T07:30:01;28.0;44.0
78467;SHT31;67759;51.972;5.650;2023-06-26T07:32:31;28.1;43.3
78467;SHT31;67759;51.972;5.650;2023-06-26T07:35:00;28.1;43.7
78467;SHT31;67759;51.972;5.650;2023-06-26T07:37:30;28.2;43.4
78467;SHT31;67759;51.972;5.650;2023-06-26T07:40:00;28.3;43.8
78467;SHT31;67759;51.972;5.650;2023-06-26T07:42:30;28.4;43.3
78467;SHT31;67759;51.972;5.650;2023-06-26T07:45:01;28.5;42.0
78467;SHT31;67759;51.972;5.650;2023-06-26T07:47:36;28.5;42.0
78467;SHT31;67759;51.972;5.650;2023-06-26T07:50:06;28.5;42.0
78467;SHT31;67759;51.972;5.650;2023-06-26T07:52:36;28.5;42.2
78467;SHT31;67759;51.972;5.650;2023-06-26T07:55:07;28.5;42.5
78467;SHT31;67759;51.972;5.650;2023-06-26T07:57:36;28.5;42.5
78467;SHT31;67759;51.972;5.650;2023-06-26T08:00:11;28.5;42.9
78467;SHT31;67759;51.972;5.650;2023-06-26T08:02:41;28.5;43.3
78467;SHT31;67759;51.972;5.650;2023-06-26T08:05:10;28.5;43.0
78467;SHT31;67759;51.972;5.650;2023-06-26T08:07:40;28.5;42.5
78467;SHT31;67759;51.972;5.650;2023-06-26T08:10:11;28.5;42.3
78467;SHT31;67759;51.972;5.650;2023-06-26T08:12:40;28.4;43.3
78467;SHT31;67759;51.972;5.650;2023-06-26T08:15:12;28.3;42.5
78467;SHT31;67759;51.972;5.650;2023-06-26T08:17:42;28.3;42.7
78467;SHT31;67759;51.972;5.650;2023-06-26T08:20:13;28.2;42.4
78467;SHT31;67759;51.972;5.650;2023-06-26T08:22:42;28.2;42.9
78467;SHT31;67759;51.972;5.650;2023-06-26T08:25:12;28.1;43.4
78467;SHT31;67759;51.972;5.650;2023-06-26T08:27:43;28.1;43.8
78467;SHT31;67759;51.972;5.650;2023-06-26T08:30:13;28.2;43.3
78467;SHT31;67759;51.972;5.650;2023-06-26T08:32:44;28.3;43.2
78467;SHT31;67759;51.972;5.650;2023-06-26T08:35:14;28.5;43.7
78467;SHT31;67759;51.972;5.650;2023-06-26T08:37:46;28.7;41.9
78467;SHT31;67759;51.972;5.650;2023-06-26T08:40:18;28.9;39.9
78467;SHT31;67759;51.972;5.650;2023-06-26T08:42:48;29.0;40.3
78467;SHT31;67759;51.972;5.650;2023-06-26T08:45:21;29.1;39.8
78467;SHT31;67759;51.972;5.650;2023-06-26T08:47:53;29.1;39.9
78467;SHT31;67759;51.972;5.650;2023-06-26T08:50:30;29.1;40.3
78467;SHT31;67759;51.972;5.650;2023-06-26T08:53:06;29.2;39.3
78467;SHT31;67759;51.972;5.650;2023-06-26T08:55:41;29.2;39.3
78467;SHT31;67759;51.972;5.650;2023-06-26T08:58:11;29.1;38.8
78467;SHT31;67759;51.972;5.650;2023-06-26T09:00:41;29.1;37.7
78467;SHT31;67759;51.972;5.650;2023-06-26T09:03:13;29.0;37.8
78467;SHT31;67759;51.972;5.650;2023-06-26T09:05:42;29.0;37.7
78467;SHT31;67759;51.972;5.650;2023-06-26T09:08:12;28.9;37.2
78467;SHT31;67759;51.972;5.650;2023-06-26T09:10:43;28.9;37.8
78467;SHT31;67759;51.972;5.650;2023-06-26T09:13:15;28.8;38.7
78467;SHT31;67759;51.972;5.650;2023-06-26T09:15:45;28.8;37.8
78467;SHT31;67759;51.972;5.650;2023-06-26T09:18:17;28.8;38.2
78467;SHT31;67759;51.972;5.650;2023-06-26T09:20:47;28.8;38.4
78467;SHT31;67759;51.972;5.650;2023-06-26T09:23:17;28.8;38.9
78467;SHT31;67759;51.972;5.650;2023-06-26T09:25:47;28.8;38.7
78467;SHT31;67759;51.972;5.650;2023-06-26T09:28:17;28.8;38.8
78467;SHT31;67759;51.972;5.650;2023-06-26T09:30:47;28.9;37.9
78467;SHT31;67759;51.972;5.650;2023-06-26T09:33:19;29.0;37.9
78467;SHT31;67759;51.972;5.650;2023-06-26T09:35:51;29.1;37.3
78467;SHT31;67759;51.972;5.650;2023-06-26T09:38:21;29.2;37.6
78467;SHT31;67759;51.972;5.650;2023-06-26T09:40:52;29.2;37.3
78467;SHT31;67759;51.972;5.650;2023-06-26T09:43:21;29.2;36.9
78467;SHT31;67759;51.972;5.650;2023-06-26T09:45:53;29.2;37.4
78467;SHT31;67759;51.972;5.650;2023-06-26T09:48:23;29.2;37.6
78467;SHT31;67759;51.972;5.650;2023-06-26T09:50:53;29.2;37.0
78467;SHT31;67759;51.972;5.650;2023-06-26T09:53:25;29.3;36.7
78467;SHT31;67759;51.972;5.650;2023-06-26T09:55:57;29.3;37.0
78467;SHT31;67759;51.972;5.650;2023-06-26T09:58:27;29.4;36.1
78467;SHT31;67759;51.972;5.650;2023-06-26T10:00:57;29.4;36.4
78467;SHT31;67759;51.972;5.650;2023-06-26T10:03:29;29.4;36.0
78467;SHT31;67759;51.972;5.650;2023-06-26T10:06:00;29.4;36.0
78467;SHT31;67759;51.972;5.650;2023-06-26T10:08:31;29.5;36.1
78467;SHT31;67759;51.972;5.650;2023-06-26T10:11:05;29.6;35.9
78467;SHT31;67759;51.972;5.650;2023-06-26T10:13:39;29.7;36.1
78467;SHT31;67759;51.972;5.650;2023-06-26T10:16:21;29.7;35.9
78467;SHT31;67759;51.972;5.650;2023-06-26T10:18:55;29.7;34.5
78467;SHT31;67759;51.972;5.650;2023-06-26T10:21:26;29.6;34.5
78467;SHT31;67759;51.972;5.650;2023-06-26T10:23:59;29.6;34.2
78467;SHT31;67759;51.972;5.650;2023-06-26T10:26:30;29.6;33.6
78467;SHT31;67759;51.972;5.650;2023-06-26T10:29:05;29.5;34.0
78467;SHT31;67759;51.972;5.650;2023-06-26T10:31:38;29.5;33.7
78467;SHT31;67759;51.972;5.650;2023-06-26T10:34:11;29.6;33.9
78467;SHT31;67759;51.972;5.650;2023-06-26T10:36:41;29.6;34.1
78467;SHT31;67759;51.972;5.650;2023-06-26T10:39:11;29.7;33.5
78467;SHT31;67759;51.972;5.650;2023-06-26T10:41:41;29.7;33.7
78467;SHT31;67759;51.972;5.650;2023-06-26T10:44:16;29.7;34.4
78467;SHT31;67759;51.972;5.650;2023-06-26T10:46:52;29.8;34.1
78467;SHT31;67759;51.972;5.650;2023-06-26T10:49:26;29.8;33.3
78467;SHT31;67759;51.972;5.650;2023-06-26T10:52:00;29.8;33.2
78467;SHT31;67759;51.972;5.650;2023-06-26T10:54:32;29.7;33.1
78467;SHT31;67759;51.972;5.650;2023-06-26T10:57:04;29.7;33.3
78467;SHT31;67759;51.972;5.650;2023-06-26T10:59:40;29.8;32.8
78467;SHT31;67759;51.972;5.650;2023-06-26T11:02:13;29.8;32.4
78467;SHT31;67759;51.972;5.650;2023-06-26T11:04:47;29.8;32.5
78467;SHT31;67759;51.972;5.650;2023-06-26T11:07:22;29.8;32.4
78467;SHT31;67759;51.972;5.650;2023-06-26T11:09:56;29.6;32.3
78467;SHT31;67759;51.972;5.650;2023-06-26T11:12:37;29.5;32.5
78467;SHT31;67759;51.972;5.650;2023-06-26T11:15:12;29.5;33.0
78467;SHT31;67759;51.972;5.650;2023-06-26T11:17:44;29.4;33.9
78467;SHT31;67759;51.972;5.650;2023-06-26T11:20:15;29.4;33.1
78467;SHT31;67759;51.972;5.650;2023-06-26T11:22:47;29.4;32.7
78467;SHT31;67759;51.972;5.650;2023-06-26T11:25:21;29.4;33.1
78467;SHT31;67759;51.972;5.650;2023-06-26T11:27:53;29.4;33.3
78467;SHT31;67759;51.972;5.650;2023-06-26T11:30:26;29.4;33.4
78467;SHT31;67759;51.972;5.650;2023-06-26T11:33:04;29.4;33.7
78467;SHT31;67759;51.972;5.650;2023-06-26T11:35:34;29.4;32.9
78467;SHT31;67759;51.972;5.650;2023-06-26T11:38:04;29.4;33.5
78467;SHT31;67759;51.972;5.650;2023-06-26T11:40:35;29.4;33.4
78467;SHT31;67759;51.972;5.650;2023-06-26T11:43:06;29.5;33.3
78467;SHT31;67759;51.972;5.650;2023-06-26T11:45:39;29.5;33.4
78467;SHT31;67759;51.972;5.650;2023-06-26T11:48:09;29.6;32.7
78467;SHT31;67759;51.972;5.650;2023-06-26T11:50:41;29.7;32.5
78467;SHT31;67759;51.972;5.650;2023-06-26T11:53:15;29.8;31.5
78467;SHT31;67759;51.972;5.650;2023-06-26T11:55:44;29.8;32.0
78467;SHT31;67759;51.972;5.650;2023-06-26T11:58:14;29.9;32.4
78467;SHT31;67759;51.972;5.650;2023-06-26T12:00:47;29.9;32.2
78467;SHT31;67759;51.972;5.650;2023-06-26T12:03:18;30.0;31.6
78467;SHT31;67759;51.972;5.650;2023-06-26T12:05:48;30.0;32.1
78467;SHT31;67759;51.972;5.650;2023-06-26T12:08:22;30.1;31.1
78467;SHT31;67759;51.972;5.650;2023-06-26T12:10:52;30.2;31.2
78467;SHT31;67759;51.972;5.650;2023-06-26T12:13:21;30.2;31.4
78467;SHT31;67759;51.972;5.650;2023-06-26T12:15:53;30.3;30.6
78467;SHT31;67759;51.972;5.650;2023-06-26T12:18:23;30.3;30.6
78467;SHT31;67759;51.972;5.650;2023-06-26T12:20:53;30.4;31.2
78467;SHT31;67759;51.972;5.650;2023-06-26T12:23:24;30.4;31.0
78467;SHT31;67759;51.972;5.650;2023-06-26T12:25:58;30.4;30.0
78467;SHT31;67759;51.972;5.650;2023-06-26T12:28:37;30.4;30.1
78467;SHT31;67759;51.972;5.650;2023-06-26T12:31:17;30.4;30.5
78467;SHT31;67759;51.972;5.650;2023-06-26T12:33:48;30.3;30.7
78467;SHT31;67759;51.972;5.650;2023-06-26T12:36:20;30.3;31.4
78467;SHT31;67759;51.972;5.650;2023-06-26T12:38:52;30.3;31.0
78467;SHT31;67759;51.972;5.650;2023-06-26T12:41:27;30.3;30.6
78467;SHT31;67759;51.972;5.650;2023-06-26T12:43:57;30.4;29.7
78467;SHT31;67759;51.972;5.650;2023-06-26T12:46:35;30.4;29.2
78467;SHT31;67759;51.972;5.650;2023-06-26T12:49:05;30.4;29.7
78467;SHT31;67759;51.972;5.650;2023-06-26T12:51:34;30.5;30.6
78467;SHT31;67759;51.972;5.650;2023-06-26T12:54:04;30.5;29.6
78467;SHT31;67759;51.972;5.650;2023-06-26T12:56:34;30.6;30.5
78467;SHT31;67759;51.972;5.650;2023-06-26T12:59:03;30.7;28.6
78467;SHT31;67759;51.972;5.650;2023-06-26T13:01:33;30.8;28.2
78467;SHT31;67759;51.972;5.650;2023-06-26T13:04:05;30.9;28.0
78467;SHT31;67759;51.972;5.650;2023-06-26T13:06:36;31.0;28.3
78467;SHT31;67759;51.972;5.650;2023-06-26T13:09:06;31.0;28.2
78467;SHT31;67759;51.972;5.650;2023-06-26T13:11:37;31.0;27.9
78467;SHT31;67759;51.972;5.650;2023-06-26T13:14:06;31.0;27.6
78467;SHT31;67759;51.972;5.650;2023-06-26T13:16:36;31.1;27.1
78467;SHT31;67759;51.972;5.650;2023-06-26T13:19:06;31.1;27.1
78467;SHT31;67759;51.972;5.650;2023-06-26T13:21:36;31.1;27.5
78467;SHT31;67759;51.972;5.650;2023-06-26T13:24:06;31.1;27.3
78467;SHT31;67759;51.972;5.650;2023-06-26T13:26:36;31.1;26.9
78467;SHT31;67759;51.972;5.650;2023-06-26T13:29:06;31.0;26.9
78467;SHT31;67759;51.972;5.650;2023-06-26T13:31:35;31.0;27.1
78467;SHT31;67759;51.972;5.650;2023-06-26T13:34:06;31.0;27.6
78467;SHT31;67759;51.972;5.650;2023-06-26T13:36:36;31.1;27.1
78467;SHT31;67759;51.972;5.650;2023-06-26T13:39:06;31.1;26.9
78467;SHT31;67759;51.972;5.650;2023-06-26T13:41:36;31.1;26.9
78467;SHT31;67759;51.972;5.650;2023-06-26T13:44:06;30.9;27.8
78467;SHT31;67759;51.972;5.650;2023-06-26T13:46:35;30.8;28.9
78467;SHT31;67759;51.972;5.650;2023-06-26T13:49:05;30.8;28.6
78467;SHT31;67759;51.972;5.650;2023-06-26T13:51:34;30.8;28.2
78467;SHT31;67759;51.972;5.650;2023-06-26T13:54:05;30.8;27.4
78467;SHT31;67759;51.972;5.650;2023-06-26T13:56:36;30.8;28.1
78467;SHT31;67759;51.972;5.650;2023-06-26T13:59:05;30.8;28.4
78467;SHT31;67759;51.972;5.650;2023-06-26T14:01:35;30.9;28.5
78467;SHT31;67759;51.972;5.650;2023-06-26T14:04:06;31.0;28.8
78467;SHT31;67759;51.972;5.650;2023-06-26T14:06:35;31.1;28.9
78467;SHT31;67759;51.972;5.650;2023-06-26T14:09:07;31.2;28.4
78467;SHT31;67759;51.972;5.650;2023-06-26T14:11:37;31.4;28.6
78467;SHT31;67759;51.972;5.650;2023-06-26T14:14:06;31.5;28.0
78467;SHT31;67759;51.972;5.650;2023-06-26T14:16:36;31.6;28.1
78467;SHT31;67759;51.972;5.650;2023-06-26T14:19:07;31.7;28.2
78467;SHT31;67759;51.972;5.650;2023-06-26T14:21:43;31.8;27.8
78467;SHT31;67759;51.972;5.650;2023-06-26T14:24:12;31.9;26.9
78467;SHT31;67759;51.972;5.650;2023-06-26T14:26:42;32.1;26.4
78467;SHT31;67759;51.972;5.650;2023-06-26T14:29:13;32.2;26.8
78467;SHT31;67759;51.972;5.650;2023-06-26T14:31:44;32.3;27.0
78467;SHT31;67759;51.972;5.650;2023-06-26T14:34:14;32.4;26.3
78467;SHT31;67759;51.972;5.650;2023-06-26T14:36:44;32.5;26.9
78467;SHT31;67759;51.972;5.650;2023-06-26T14:39:13;32.6;26.6
78467;SHT31;67759;51.972;5.650;2023-06-26T14:41:43;32.7;27.1
78467;SHT31;67759;51.972;5.650;2023-06-26T14:44:15;32.7;26.0
78467;SHT31;67759;51.972;5.650;2023-06-26T14:46:44;32.8;26.4
78467;SHT31;67759;51.972;5.650;2023-06-26T14:49:14;32.8;26.0
78467;SHT31;67759;51.972;5.650;2023-06-26T14:51:44;32.9;25.4
78467;SHT31;67759;51.972;5.650;2023-06-26T14:54:13;32.9;25.7
78467;SHT31;67759;51.972;5.650;2023-06-26T14:56:43;32.9;26.1
78467;SHT31;67759;51.972;5.650;2023-06-26T14:59:13;33.0;26.3
78467;SHT31;67759;51.972;5.650;2023-06-26T15:01:43;33.0;26.2
78467;SHT31;67759;51.972;5.650;2023-06-26T15:04:12;33.1;26.7
78467;SHT31;67759;51.972;5.650;2023-06-26T15:06:44;33.2;26.9
78467;SHT31;67759;51.972;5.650;2023-06-26T15:09:14;33.4;26.0
78467;SHT31;67759;51.972;5.650;2023-06-26T15:11:45;33.5;25.7
78467;SHT31;67759;51.972;5.650;2023-06-26T15:14:15;33.6;25.6
78467;SHT31;67759;51.972;5.650;2023-06-26T15:16:45;33.7;25.4
78467;SHT31;67759;51.972;5.650;2023-06-26T15:19:15;33.8;25.1
78467;SHT31;67759;51.972;5.650;2023-06-26T15:21:44;34.0;25.0
78467;SHT31;67759;51.972;5.650;2023-06-26T15:24:16;34.1;25.3
78467;SHT31;67759;51.972;5.650;2023-06-26T15:26:46;34.4;24.1
78467;SHT31;67759;51.972;5.650;2023-06-26T15:29:15;34.6;24.0
78467;SHT31;67759;51.972;5.650;2023-06-26T15:31:45;34.8;24.2
78467;SHT31;67759;51.972;5.650;2023-06-26T15:34:15;35.1;23.8
78467;SHT31;67759;51.972;5.650;2023-06-26T15:36:45;35.4;23.2
78467;SHT31;67759;51.972;5.650;2023-06-26T15:39:15;35.4;22.8
78467;SHT31;67759;51.972;5.650;2023-06-26T15:41:45;35.2;22.7
78467;SHT31;67759;51.972;5.650;2023-06-26T15:44:17;34.9;23.3
78467;SHT31;67759;51.972;5.650;2023-06-26T15:46:47;34.8;23.4
78467;SHT31;67759;51.972;5.650;2023-06-26T15:49:16;34.8;23.9
78467;SHT31;67759;51.972;5.650;2023-06-26T15:51:46;35.0;23.1
78467;SHT31;67759;51.972;5.650;2023-06-26T15:54:15;35.2;23.8
78467;SHT31;67759;51.972;5.650;2023-06-26T15:56:45;35.3;22.7
78467;SHT31;67759;51.972;5.650;2023-06-26T15:59:16;35.4;22.4
78467;SHT31;67759;51.972;5.650;2023-06-26T16:01:46;35.5;22.0
78467;SHT31;67759;51.972;5.650;2023-06-26T16:04:17;35.5;22.2
78467;SHT31;67759;51.972;5.650;2023-06-26T16:06:49;35.6;21.8
78467;SHT31;67759;51.972;5.650;2023-06-26T16:09:18;35.7;21.8
78467;SHT31;67759;51.972;5.650;2023-06-26T16:11:48;35.7;22.0
78467;SHT31;67759;51.972;5.650;2023-06-26T16:14:18;35.7;21.7
78467;SHT31;67759;51.972;5.650;2023-06-26T16:16:48;35.7;21.8
78467;SHT31;67759;51.972;5.650;2023-06-26T16:19:18;35.7;21.7
78467;SHT31;67759;51.972;5.650;2023-06-26T16:21:47;35.6;22.4
78467;SHT31;67759;51.972;5.650;2023-06-26T16:24:17;35.5;22.6
78467;SHT31;67759;51.972;5.650;2023-06-26T16:26:47;35.6;22.5